createdAt,value
2023-04-19T00:00:41.746Z,11.48
2023-04-19T00:03:10.179Z,11.40
2023-04-19T00:05:41.224Z,11.40
2023-04-19T00:08:08.835Z,11.38
2023-04-19T00:10:36.139Z,11.34
2023-04-19T00:13:03.492Z,11.36
2023-04-19T00:15:30.740Z,11.23
2023-04-19T00:17:58.010Z,11.24
2023-04-19T00:20:25.233Z,11.19
2023-04-19T00:22:52.626Z,11.19
2023-04-19T00:25:19.912Z,11.16
2023-04-19T00:27:47.121Z,11.13
2023-04-19T00:30:14.738Z,11.10
2023-04-19T00:32:42.058Z,11.07
2023-04-19T00:35:09.426Z,11.02
2023-04-19T00:37:36.718Z,10.99
2023-04-19T00:40:06.012Z,11.02
2023-04-19T00:42:33.369Z,11.00
2023-04-19T00:45:00.666Z,10.99
2023-04-19T00:47:28.048Z,10.99
2023-04-19T00:49:55.711Z,10.95
2023-04-19T00:52:22.974Z,10.89
2023-04-19T00:54:50.214Z,10.85
2023-04-19T00:57:17.846Z,10.82
2023-04-19T00:59:45.111Z,10.76
2023-04-19T01:02:12.954Z,10.73
2023-04-19T01:04:40.458Z,10.76
2023-04-19T01:07:07.846Z,10.78
2023-04-19T01:09:35.117Z,10.78
2023-04-19T01:12:03.576Z,10.65
2023-04-19T01:14:30.884Z,10.75
2023-04-19T01:16:58.252Z,10.73
2023-04-19T01:19:26.946Z,10.78
2023-04-19T01:21:56.430Z,10.76
2023-04-19T01:24:23.771Z,10.76
2023-04-19T01:26:51.434Z,10.75
2023-04-19T01:29:18.908Z,10.73
2023-04-19T01:31:51.456Z,10.72
2023-04-19T01:34:18.825Z,10.69
2023-04-19T01:36:46.322Z,10.67
2023-04-19T01:39:13.763Z,10.57
2023-04-19T01:41:41.045Z,10.59
2023-04-19T01:44:10.088Z,10.55
2023-04-19T01:46:38.950Z,10.62
2023-04-19T01:49:06.488Z,10.62
2023-04-19T01:51:33.713Z,10.64
2023-04-19T01:54:02.686Z,10.62
2023-04-19T01:56:30.102Z,10.65
2023-04-19T01:58:57.440Z,10.64
2023-04-19T02:01:25.014Z,10.67
2023-04-19T02:03:52.498Z,10.67
2023-04-19T02:06:20.450Z,10.58
2023-04-19T02:08:50.089Z,10.65
2023-04-19T02:11:17.488Z,10.71
2023-04-19T02:13:44.813Z,10.73
2023-04-19T02:16:12.235Z,10.79
2023-04-19T02:18:40.792Z,10.80
2023-04-19T02:21:10.020Z,10.78
2023-04-19T02:23:37.393Z,10.85
2023-04-19T02:26:04.719Z,10.76
2023-04-19T02:28:32.304Z,10.86
2023-04-19T02:30:59.558Z,10.88
2023-04-19T02:33:29.207Z,10.85
2023-04-19T02:35:56.482Z,10.79
2023-04-19T02:38:23.792Z,10.72
2023-04-19T02:40:54.265Z,10.72
2023-04-19T02:43:21.530Z,10.75
2023-04-19T02:45:48.819Z,10.80
2023-04-19T02:48:16.153Z,10.71
2023-04-19T02:50:43.448Z,10.64
2023-04-19T02:53:10.801Z,10.72
2023-04-19T02:55:38.455Z,10.85
2023-04-19T02:58:10.597Z,10.73
2023-04-19T03:00:44.214Z,10.71
2023-04-19T03:03:15.625Z,10.69
2023-04-19T03:05:43.063Z,10.59
2023-04-19T03:08:11.227Z,10.58
2023-04-19T03:10:39.200Z,10.58
2023-04-19T03:13:06.424Z,10.55
2023-04-19T03:15:33.704Z,10.54
2023-04-19T03:18:01.089Z,10.45
2023-04-19T03:20:30.075Z,10.48
2023-04-19T03:22:58.159Z,10.40
2023-04-19T03:25:26.170Z,10.41
2023-04-19T03:28:00.901Z,10.40
2023-04-19T03:30:51.140Z,10.55
2023-04-19T03:33:18.524Z,10.52
2023-04-19T03:35:46.128Z,10.48
2023-04-19T03:38:13.446Z,10.51
2023-04-19T03:40:40.694Z,10.44
2023-04-19T03:43:10.608Z,10.52
2023-04-19T03:45:37.905Z,10.58
2023-04-19T03:48:05.560Z,10.51
2023-04-19T03:50:32.872Z,10.44
2023-04-19T03:53:01.391Z,10.41
2023-04-19T03:55:28.881Z,10.44
2023-04-19T03:57:56.494Z,10.38
2023-04-19T04:00:36.482Z,10.40
2023-04-19T04:03:04.181Z,10.37
2023-04-19T04:05:31.936Z,10.34
2023-04-19T04:08:01.084Z,10.38
2023-04-19T04:10:28.394Z,10.33
2023-04-19T04:12:55.850Z,10.25
2023-04-19T04:15:35.635Z,10.31
2023-04-19T04:18:03.917Z,10.34
2023-04-19T04:20:31.698Z,10.33
2023-04-19T04:23:05.500Z,10.28
2023-04-19T04:25:33.182Z,10.30
2023-04-19T04:28:06.333Z,10.21
2023-04-19T04:30:34.481Z,10.31
2023-04-19T04:33:02.693Z,10.30
2023-04-19T04:35:30.790Z,10.22
2023-04-19T04:38:17.481Z,10.37
2023-04-19T04:40:57.018Z,10.33
2023-04-19T04:43:25.878Z,10.38
2023-04-19T04:45:55.747Z,10.45
2023-04-19T04:48:24.326Z,10.42
2023-04-19T04:50:51.622Z,10.49
2023-04-19T04:53:20.335Z,10.65
2023-04-19T04:55:47.578Z,10.71
2023-04-19T04:58:15.265Z,10.79
2023-04-19T05:00:52.376Z,10.89
2023-04-19T05:03:20.349Z,10.78
2023-04-19T05:05:53.927Z,10.78
2023-04-19T05:08:21.485Z,10.79
2023-04-19T05:10:49.319Z,10.86
2023-04-19T05:13:23.666Z,11.00
2023-04-19T05:15:51.854Z,11.07
2023-04-19T05:18:19.809Z,11.06
2023-04-19T05:20:47.506Z,11.16
2023-04-19T05:23:20.352Z,11.24
2023-04-19T05:25:49.485Z,11.30
2023-04-19T05:28:16.984Z,11.34
2023-04-19T05:30:57.190Z,11.41
2023-04-19T05:33:29.039Z,11.37
2023-04-19T05:35:57.685Z,11.46
2023-04-19T05:38:25.184Z,11.50
2023-04-19T05:40:56.597Z,11.65
2023-04-19T05:43:30.421Z,11.77
2023-04-19T05:45:58.483Z,11.73
2023-04-19T05:48:26.564Z,11.73
2023-04-19T05:51:07.284Z,11.71
2023-04-19T05:56:47.493Z,11.73
2023-04-19T05:59:16.120Z,11.74
2023-04-19T06:01:43.750Z,11.71
2023-04-19T06:04:11.666Z,11.70
2023-04-19T06:06:39.391Z,11.68
2023-04-19T06:09:42.243Z,11.71
2023-04-19T06:12:12.993Z,11.63
2023-04-19T06:14:40.821Z,11.78
2023-04-19T06:17:09.002Z,11.78
2023-04-19T06:19:37.855Z,11.74
2023-04-19T06:22:05.330Z,11.67
2023-04-19T06:24:33.751Z,11.81
2023-04-19T06:27:03.037Z,11.64
2023-04-19T06:29:30.672Z,11.67
2023-04-19T06:32:20.289Z,11.58
2023-04-19T06:34:50.935Z,11.50
2023-04-19T06:37:18.304Z,11.48
2023-04-19T06:39:45.829Z,11.63
2023-04-19T06:42:15.004Z,11.57
2023-04-19T06:44:42.318Z,11.67
2023-04-19T06:47:09.918Z,11.79
2023-04-19T06:49:37.649Z,11.74
2023-04-19T06:52:04.953Z,11.78
2023-04-19T06:54:32.641Z,11.74
2023-04-19T06:57:00.967Z,11.78
2023-04-19T06:59:28.526Z,11.85
2023-04-19T07:04:54.354Z,11.98
2023-04-19T07:07:21.958Z,11.96
2023-04-19T07:09:52.228Z,12.01
2023-04-19T07:12:19.765Z,12.01
2023-04-19T07:14:47.107Z,12.12
2023-04-19T07:17:15.135Z,12.16
2023-04-19T07:19:42.836Z,12.36
2023-04-19T07:22:10.339Z,12.14
2023-04-19T07:24:40.342Z,12.37
2023-04-19T07:27:08.330Z,12.39
2023-04-19T07:29:36.864Z,12.28
2023-04-19T07:32:05.012Z,12.22
2023-04-19T07:34:32.290Z,12.29
2023-04-19T07:36:59.862Z,12.16
2023-04-19T07:39:27.348Z,12.16
2023-04-19T07:41:54.660Z,12.15
2023-04-19T07:44:21.960Z,12.08
2023-04-19T07:46:49.583Z,12.14
2023-04-19T07:49:17.232Z,12.29
2023-04-19T07:51:44.623Z,12.36
2023-04-19T07:54:12.748Z,12.45
2023-04-19T07:56:40.431Z,12.35
2023-04-19T07:59:09.402Z,12.59
2023-04-19T08:01:37.311Z,12.93
2023-04-19T08:04:06.532Z,12.95
2023-04-19T08:06:38.369Z,12.90
2023-04-19T08:09:05.950Z,12.98
2023-04-19T08:11:33.201Z,13.19
2023-04-19T08:17:14.196Z,13.10
2023-04-19T08:19:19.444Z,13.25
2023-04-19T08:21:46.897Z,13.16
2023-04-19T08:24:14.473Z,13.19
2023-04-19T08:26:42.661Z,13.11
2023-04-19T08:29:10.122Z,12.94
2023-04-19T08:31:37.575Z,12.90
2023-04-19T08:34:05.189Z,12.74
2023-04-19T08:36:41.065Z,12.87
2023-04-19T08:39:24.724Z,13.08
2023-04-19T08:42:05.952Z,13.14
2023-04-19T08:44:48.924Z,13.10
2023-04-19T08:47:29.603Z,13.19
2023-04-19T08:50:17.284Z,13.10
2023-04-19T08:52:58.695Z,13.10
2023-04-19T08:55:31.070Z,13.19
2023-04-19T08:57:58.930Z,13.21
2023-04-19T09:00:26.426Z,13.39
2023-04-19T09:02:57.798Z,13.63
2023-04-19T09:05:25.856Z,13.69
2023-04-19T09:07:53.875Z,13.69
2023-04-19T09:10:21.874Z,13.73
2023-04-19T09:13:05.704Z,13.69
2023-04-19T09:15:37.975Z,13.46
2023-04-19T09:18:10.051Z,13.31
2023-04-19T09:20:42.467Z,13.04
2023-04-19T09:23:12.914Z,13.05
2023-04-19T09:28:37.078Z,12.70
2023-04-19T09:31:30.318Z,12.64
2023-04-19T09:34:17.033Z,12.67
2023-04-19T09:36:44.496Z,12.83
2023-04-19T09:39:15.209Z,12.98
2023-04-19T09:41:55.735Z,13.14
2023-04-19T09:44:53.065Z,13.01
2023-04-19T09:47:25.050Z,13.11
2023-04-19T09:50:21.776Z,13.00
2023-04-19T09:52:50.624Z,12.98
2023-04-19T09:55:26.686Z,12.95
2023-04-19T09:57:56.658Z,13.05
2023-04-19T10:00:27.026Z,13.03
2023-04-19T10:02:59.004Z,13.15
2023-04-19T10:05:27.035Z,13.55
2023-04-19T10:07:59.685Z,13.77
2023-04-19T10:10:41.179Z,13.96
2023-04-19T10:15:51.403Z,14.10
2023-04-19T10:18:21.570Z,13.94
2023-04-19T10:21:02.444Z,13.72
2023-04-19T10:23:30.217Z,13.63
2023-04-19T10:25:58.171Z,13.65
2023-04-19T10:28:28.326Z,13.58
2023-04-19T10:31:01.804Z,13.72
2023-04-19T10:33:32.174Z,13.86
2023-04-19T10:35:59.821Z,14.14
2023-04-19T10:38:49.611Z,14.38
2023-04-19T10:41:18.930Z,14.54
2023-04-19T10:43:47.572Z,14.49
2023-04-19T10:46:21.503Z,14.61
2023-04-19T10:48:58.900Z,14.64
2023-04-19T10:51:39.597Z,14.78
2023-04-19T10:54:29.574Z,14.75
2023-04-19T10:57:07.536Z,14.44
2023-04-19T10:59:36.029Z,14.51
2023-04-19T11:02:25.283Z,14.31
2023-04-19T11:04:54.251Z,14.34
2023-04-19T11:07:21.820Z,14.28
2023-04-19T11:09:51.207Z,14.32
2023-04-19T11:12:19.715Z,14.28
2023-04-19T11:14:54.853Z,14.30
2023-04-19T11:17:27.417Z,14.31
2023-04-19T11:19:56.544Z,14.40
2023-04-19T11:22:36.861Z,14.38
2023-04-19T11:25:14.563Z,14.42
2023-04-19T11:27:44.595Z,14.30
2023-04-19T11:30:14.926Z,14.21
2023-04-19T11:32:47.304Z,14.13
2023-04-19T11:35:14.992Z,14.04
2023-04-19T11:37:42.914Z,14.18
2023-04-19T11:40:14.449Z,14.20
2023-04-19T11:42:41.935Z,14.04
2023-04-19T11:45:26.067Z,14.27
2023-04-19T11:47:56.433Z,14.14
2023-04-19T11:50:42.088Z,13.93
2023-04-19T11:53:23.055Z,13.86
2023-04-19T11:55:51.687Z,14.00
2023-04-19T11:58:49.613Z,13.96
2023-04-19T12:01:19.859Z,14.00
2023-04-19T12:03:52.234Z,13.91
2023-04-19T12:06:31.756Z,14.10
2023-04-19T12:08:59.194Z,14.00
2023-04-19T12:11:42.474Z,14.20
2023-04-19T12:14:10.418Z,14.24
2023-04-19T12:16:38.212Z,14.34
2023-04-19T12:19:15.194Z,14.59
2023-04-19T12:21:42.831Z,14.82
2023-04-19T12:24:10.395Z,14.76
2023-04-19T12:26:38.237Z,14.72
2023-04-19T12:29:05.913Z,14.88
2023-04-19T12:31:33.950Z,15.09
2023-04-19T12:34:01.171Z,15.02
2023-04-19T12:36:28.733Z,14.88
2023-04-19T12:38:56.383Z,14.64
2023-04-19T12:41:23.883Z,14.46
2023-04-19T12:43:51.290Z,14.49
2023-04-19T12:46:18.999Z,14.58
2023-04-19T12:48:46.398Z,14.31
2023-04-19T12:51:13.693Z,14.38
2023-04-19T12:53:42.126Z,14.22
2023-04-19T12:56:09.531Z,14.27
2023-04-19T12:58:36.870Z,14.07
2023-04-19T13:01:04.163Z,14.03
2023-04-19T13:03:33.341Z,13.82
2023-04-19T13:06:01.342Z,13.82
2023-04-19T13:11:01.559Z,13.65
2023-04-19T13:13:29.543Z,13.53
2023-04-19T13:15:57.117Z,13.62
2023-04-19T13:18:24.928Z,13.79
2023-04-19T13:20:54.016Z,13.86
2023-04-19T13:23:21.702Z,13.79
2023-04-19T13:25:49.003Z,13.79
2023-04-19T13:28:16.321Z,13.84
2023-04-19T13:30:44.627Z,13.69
2023-04-19T13:33:11.900Z,13.72
2023-04-19T13:35:39.317Z,13.79
2023-04-19T13:38:06.768Z,14.07
2023-04-19T13:40:34.251Z,14.48
2023-04-19T13:43:01.725Z,14.85
2023-04-19T13:45:29.058Z,15.46
2023-04-19T13:47:56.490Z,15.75
2023-04-19T13:50:23.929Z,15.99
2023-04-19T13:52:51.718Z,15.91
2023-04-19T13:55:21.756Z,15.67
2023-04-19T13:57:49.171Z,15.87
2023-04-19T14:00:17.057Z,15.54
2023-04-19T14:02:45.527Z,15.30
2023-04-19T14:05:12.985Z,15.24
2023-04-19T14:07:40.768Z,15.27
2023-04-19T14:10:09.366Z,15.14
2023-04-19T14:12:36.776Z,15.09
2023-04-19T14:15:04.466Z,15.03
2023-04-19T14:17:31.913Z,15.22
2023-04-19T14:20:03.085Z,15.51
2023-04-19T14:22:42.828Z,14.96
2023-04-19T14:25:13.840Z,14.76
2023-04-19T14:27:42.990Z,14.72
2023-04-19T14:30:17.023Z,14.61
2023-04-19T14:32:50.485Z,14.35
2023-04-19T14:35:20.218Z,14.45
2023-04-19T14:37:48.311Z,14.80
2023-04-19T14:40:18.275Z,14.89
2023-04-19T14:42:45.634Z,15.00
2023-04-19T14:45:12.969Z,15.24
2023-04-19T14:47:40.622Z,15.29
2023-04-19T14:50:08.227Z,14.78
2023-04-19T14:52:35.748Z,14.52
2023-04-19T14:55:04.266Z,14.83
2023-04-19T14:57:32.012Z,14.98
2023-04-19T15:00:01.212Z,15.10
2023-04-19T15:02:29.069Z,15.19
2023-04-19T15:05:15.036Z,15.48
2023-04-19T15:07:45.072Z,15.51
2023-04-19T15:10:12.420Z,15.09
2023-04-19T15:12:39.781Z,14.96
2023-04-19T15:15:07.635Z,14.54
2023-04-19T15:17:35.306Z,14.20
2023-04-19T15:20:03.294Z,14.20
2023-04-19T15:22:30.815Z,14.07
2023-04-19T15:24:58.191Z,13.77
2023-04-19T15:27:25.784Z,13.66
2023-04-19T15:29:53.754Z,13.51
2023-04-19T15:32:22.156Z,13.49
2023-04-19T15:34:55.208Z,13.39
2023-04-19T15:37:28.383Z,13.22
2023-04-19T15:40:14.320Z,13.22
2023-04-19T15:42:43.132Z,12.95
2023-04-19T15:45:12.084Z,12.76
2023-04-19T15:47:45.341Z,12.68
2023-04-19T15:50:15.184Z,12.84
2023-04-19T15:52:46.689Z,12.87
2023-04-19T15:55:18.296Z,12.97
2023-04-19T15:57:50.409Z,13.08
2023-04-19T16:00:18.762Z,13.10
2023-04-19T16:02:46.193Z,13.01
2023-04-19T16:05:14.053Z,13.03
2023-04-19T16:07:44.396Z,13.10
2023-04-19T16:10:12.366Z,13.01
2023-04-19T16:12:39.656Z,13.03
2023-04-19T16:15:07.798Z,12.97
2023-04-19T16:17:35.117Z,12.98
2023-04-19T16:20:02.532Z,12.84
2023-04-19T16:22:29.800Z,12.64
2023-04-19T16:24:57.080Z,12.68
2023-04-19T16:27:24.438Z,12.73
2023-04-19T16:29:51.908Z,12.68
2023-04-19T16:32:19.295Z,12.66
2023-04-19T16:34:46.653Z,12.45
2023-04-19T16:37:16.062Z,12.35
2023-04-19T16:39:43.541Z,12.25
2023-04-19T16:42:10.919Z,12.18
2023-04-19T16:44:38.285Z,12.24
2023-04-19T16:47:05.644Z,12.19
2023-04-19T16:49:32.950Z,12.12
2023-04-19T16:52:00.120Z,12.09
2023-04-19T16:54:27.351Z,12.04
2023-04-19T16:56:55.605Z,11.94
2023-04-19T16:59:25.675Z,12.15
2023-04-19T17:01:58.378Z,12.04
2023-04-19T17:04:28.172Z,11.87
2023-04-19T17:06:56.100Z,11.81
2023-04-19T17:09:34.295Z,11.77
2023-04-19T17:12:02.263Z,11.67
2023-04-19T17:14:29.668Z,11.73
2023-04-19T17:16:57.000Z,11.71
2023-04-19T17:19:24.232Z,11.65
2023-04-19T17:21:51.661Z,11.60
2023-04-19T17:24:19.072Z,11.51
2023-04-19T17:26:46.639Z,11.41
2023-04-19T17:29:13.880Z,11.46
2023-04-19T17:31:41.335Z,11.30
2023-04-19T17:34:08.750Z,11.34
2023-04-19T17:36:36.287Z,11.29
2023-04-19T17:39:03.695Z,11.27
2023-04-19T17:41:31.057Z,11.27
2023-04-19T17:43:59.326Z,11.17
2023-04-19T17:46:26.644Z,11.17
2023-04-19T17:48:55.489Z,11.06
2023-04-19T17:51:22.871Z,11.05
2023-04-19T17:53:50.083Z,10.96
2023-04-19T17:56:17.691Z,11.00
2023-04-19T17:58:45.942Z,10.99
2023-04-19T18:01:15.299Z,10.89
2023-04-19T18:03:42.697Z,10.88
2023-04-19T18:06:10.738Z,10.72
2023-04-19T18:08:38.059Z,10.61
2023-04-19T18:11:05.671Z,10.76
2023-04-19T18:13:33.065Z,10.76
2023-04-19T18:16:00.597Z,10.73
2023-04-19T18:18:27.856Z,10.69
2023-04-19T18:20:55.265Z,10.68
2023-04-19T18:23:22.712Z,10.73
2023-04-19T18:25:54.280Z,10.69
2023-04-19T18:28:21.700Z,10.62
2023-04-19T18:30:48.866Z,10.72
2023-04-19T18:33:16.221Z,10.61
2023-04-19T18:35:43.463Z,10.58
2023-04-19T18:38:10.839Z,10.58
2023-04-19T18:40:38.081Z,10.57
2023-04-19T18:43:05.463Z,10.52
2023-04-19T18:45:33.353Z,10.55
2023-04-19T18:48:01.247Z,10.40
2023-04-19T18:50:28.510Z,10.38
2023-04-19T18:52:56.036Z,10.37
2023-04-19T18:55:23.247Z,10.30
2023-04-19T18:57:51.148Z,10.24
2023-04-19T19:00:20.001Z,10.27
2023-04-19T19:02:47.469Z,10.38
2023-04-19T19:05:16.198Z,10.31
2023-04-19T19:07:43.919Z,10.31
2023-04-19T19:10:19.434Z,10.17
2023-04-19T19:12:49.599Z,10.04
2023-04-19T19:15:17.522Z,9.97
2023-04-19T19:17:49.461Z,10.00
2023-04-19T19:20:18.387Z,10.04
2023-04-19T19:22:45.879Z,10.07
2023-04-19T19:25:13.421Z,10.07
2023-04-19T19:27:40.914Z,10.03
2023-04-19T19:30:08.858Z,10.18
2023-04-19T19:32:36.183Z,10.16
2023-04-19T19:35:06.242Z,10.06
2023-04-19T19:37:36.766Z,9.94
2023-04-19T19:40:06.613Z,9.83
2023-04-19T19:42:34.691Z,9.87
2023-04-19T19:45:04.761Z,10.01
2023-04-19T19:47:35.305Z,10.03
2023-04-19T19:52:34.308Z,10.03
2023-04-19T19:55:01.600Z,10.04
2023-04-19T20:00:18.023Z,9.93
2023-04-19T20:05:17.451Z,9.86
2023-04-19T20:08:01.102Z,9.90
2023-04-19T20:10:29.513Z,9.94
2023-04-19T20:12:57.327Z,10.03
2023-04-19T20:15:24.585Z,10.01
2023-04-19T20:17:51.921Z,10.04
2023-04-19T20:20:19.330Z,9.97
2023-04-19T20:22:47.899Z,9.97
2023-04-19T20:25:15.352Z,10.01
2023-04-19T20:27:42.558Z,10.06
2023-04-19T20:30:10.200Z,10.07
2023-04-19T20:32:37.419Z,10.16
2023-04-19T20:35:10.070Z,10.03
2023-04-19T20:37:39.823Z,10.16
2023-04-19T20:40:08.293Z,10.13
2023-04-19T20:42:35.528Z,9.99
2023-04-19T20:45:03.079Z,10.04
2023-04-19T20:47:32.096Z,9.96
2023-04-19T20:49:59.620Z,10.00
2023-04-19T20:52:26.869Z,10.09
2023-04-19T20:54:56.296Z,10.01
2023-04-19T20:57:23.615Z,9.96
2023-04-19T20:59:51.086Z,10.06
2023-04-19T21:02:18.382Z,9.86
2023-04-19T21:04:45.824Z,9.91
2023-04-19T21:07:13.354Z,10.00
2023-04-19T21:09:41.195Z,9.97
2023-04-19T21:12:08.497Z,9.94
2023-04-19T21:14:35.781Z,9.87
2023-04-19T21:17:03.325Z,9.93
2023-04-19T21:19:30.693Z,9.91
2023-04-19T21:21:58.575Z,9.91
2023-04-19T21:24:26.373Z,9.94
2023-04-19T21:26:53.607Z,9.89
2023-04-19T21:29:20.978Z,9.78
2023-04-19T21:31:48.492Z,9.90
2023-04-19T21:34:15.731Z,9.86
2023-04-19T21:36:42.974Z,9.89
2023-04-19T21:39:10.329Z,9.85
2023-04-19T21:41:37.893Z,9.97
2023-04-19T21:44:05.106Z,9.87
2023-04-19T21:46:33.426Z,9.75
2023-04-19T21:49:00.801Z,9.80
2023-04-19T21:51:28.245Z,9.89
2023-04-19T21:53:55.593Z,9.96
2023-04-19T21:56:22.840Z,9.87
2023-04-19T21:58:50.120Z,9.82
2023-04-19T22:01:17.604Z,9.86
2023-04-19T22:03:45.608Z,9.94
2023-04-19T22:06:13.991Z,9.85
2023-04-19T22:08:42.458Z,9.83
2023-04-19T22:11:09.693Z,9.76
2023-04-19T22:13:37.502Z,9.72
2023-04-19T22:16:05.156Z,9.68
2023-04-19T22:18:34.677Z,9.79
2023-04-19T22:21:02.088Z,9.78
2023-04-19T22:23:29.372Z,9.75
2023-04-19T22:25:56.763Z,9.78
2023-04-19T22:28:23.935Z,9.70
2023-04-19T22:30:51.366Z,9.80
2023-04-19T22:33:19.395Z,9.68
2023-04-19T22:35:46.683Z,9.52
2023-04-19T22:38:13.922Z,9.59
2023-04-19T22:40:41.360Z,9.55
2023-04-19T22:43:08.509Z,9.56
2023-04-19T22:45:35.832Z,9.61
2023-04-19T22:48:03.392Z,9.53
2023-04-19T22:50:31.138Z,9.58
2023-04-19T22:52:58.385Z,9.53
2023-04-19T22:55:25.930Z,9.42
2023-04-19T22:57:53.171Z,9.34
2023-04-19T23:00:20.503Z,9.28
2023-04-19T23:02:47.791Z,9.22
2023-04-19T23:05:15.194Z,9.32
2023-04-19T23:07:43.524Z,9.25
2023-04-19T23:10:12.361Z,9.34
2023-04-19T23:12:39.571Z,9.38
2023-04-19T23:15:07.674Z,9.27
2023-04-19T23:17:34.923Z,9.35
2023-04-19T23:20:02.324Z,9.27
2023-04-19T23:22:29.643Z,9.25
2023-04-19T23:24:56.845Z,9.14
2023-04-19T23:27:24.081Z,9.14
2023-04-19T23:29:51.431Z,9.12
2023-04-19T23:32:18.651Z,9.17
2023-04-19T23:34:46.023Z,9.08
2023-04-19T23:37:13.722Z,9.08
2023-04-19T23:39:41.176Z,8.97
2023-04-19T23:42:08.442Z,8.85
2023-04-19T23:44:35.790Z,8.84
2023-04-19T23:47:03.593Z,8.87
2023-04-19T23:49:31.254Z,8.83
2023-04-19T23:51:58.573Z,8.87
2023-04-19T23:54:26.385Z,8.87
2023-04-19T23:56:53.797Z,8.79
2023-04-19T23:59:21.067Z,8.72
